sensor_id;sensor_type;location;lat;lon;timestamp;P1;durP1;ratioP1;P2;durP2;ratioP2
3781;SDS011;6881;49.962;7.718;2023-02-19T00:01:23;5.70;;;3.27;;
3781;SDS011;6881;49.962;7.718;2023-02-19T00:03:50;5.47;;;4.03;;
3781;SDS011;6881;49.962;7.718;2023-02-19T00:06:23;5.03;;;4.53;;
3781;SDS011;6881;49.962;7.718;2023-02-19T00:08:51;4.10;;;3.40;;
3781;SDS011;6881;49.962;7.718;2023-02-19T00:11:17;4.10;;;3.70;;
3781;SDS011;6881;49.962;7.718;2023-02-19T00:13:45;4.20;;;3.50;;
3781;SDS011;6881;49.962;7.718;2023-02-19T00:16:21;3.57;;;2.97;;
3781;SDS011;6881;49.962;7.718;2023-02-19T00:18:48;4.50;;;3.67;;
3781;SDS011;6881;49.962;7.718;2023-02-19T00:21:14;4.57;;;3.53;;
3781;SDS011;6881;49.962;7.718;2023-02-19T00:23:41;3.17;;;2.80;;
3781;SDS011;6881;49.962;7.718;2023-02-19T00:26:10;3.13;;;2.83;;
3781;SDS011;6881;49.962;7.718;2023-02-19T00:28:37;3.60;;;3.30;;
3781;SDS011;6881;49.962;7.718;2023-02-19T00:31:14;3.30;;;3.00;;
3781;SDS011;6881;49.962;7.718;2023-02-19T00:33:42;3.80;;;3.50;;
3781;SDS011;6881;49.962;7.718;2023-02-19T00:36:07;5.20;;;4.10;;
3781;SDS011;6881;49.962;7.718;2023-02-19T00:38:36;3.27;;;2.73;;
3781;SDS011;6881;49.962;7.718;2023-02-19T00:41:02;3.73;;;3.23;;
3781;SDS011;6881;49.962;7.718;2023-02-19T00:43:52;4.10;;;3.03;;
3781;SDS011;6881;49.962;7.718;2023-02-19T00:46:25;3.03;;;2.60;;
3781;SDS011;6881;49.962;7.718;2023-02-19T00:48:55;3.33;;;2.47;;
3781;SDS011;6881;49.962;7.718;2023-02-19T00:51:22;2.40;;;2.03;;
3781;SDS011;6881;49.962;7.718;2023-02-19T00:53:49;3.13;;;2.83;;
3781;SDS011;6881;49.962;7.718;2023-02-19T00:56:14;2.77;;;2.50;;
3781;SDS011;6881;49.962;7.718;2023-02-19T00:58:40;5.13;;;3.17;;
3781;SDS011;6881;49.962;7.718;2023-02-19T01:01:08;3.60;;;2.60;;
3781;SDS011;6881;49.962;7.718;2023-02-19T01:03:34;2.90;;;2.60;;
3781;SDS011;6881;49.962;7.718;2023-02-19T01:06:00;3.13;;;2.93;;
3781;SDS011;6881;49.962;7.718;2023-02-19T01:08:26;3.23;;;2.23;;
3781;SDS011;6881;49.962;7.718;2023-02-19T01:10:54;4.63;;;2.77;;
3781;SDS011;6881;49.962;7.718;2023-02-19T01:13:20;2.73;;;2.00;;
3781;SDS011;6881;49.962;7.718;2023-02-19T01:15:45;4.47;;;3.40;;
3781;SDS011;6881;49.962;7.718;2023-02-19T01:18:11;3.43;;;3.00;;
3781;SDS011;6881;49.962;7.718;2023-02-19T01:20:37;4.33;;;3.07;;
3781;SDS011;6881;49.962;7.718;2023-02-19T01:23:05;2.90;;;2.60;;
3781;SDS011;6881;49.962;7.718;2023-02-19T01:25:31;3.57;;;2.60;;
3781;SDS011;6881;49.962;7.718;2023-02-19T01:27:56;2.77;;;2.50;;
3781;SDS011;6881;49.962;7.718;2023-02-19T01:30:22;3.73;;;1.80;;
3781;SDS011;6881;49.962;7.718;2023-02-19T01:32:47;4.70;;;2.67;;
3781;SDS011;6881;49.962;7.718;2023-02-19T01:35:12;3.77;;;3.03;;
3781;SDS011;6881;49.962;7.718;2023-02-19T01:37:38;4.20;;;2.53;;
3781;SDS011;6881;49.962;7.718;2023-02-19T01:40:03;6.40;;;2.90;;
3781;SDS011;6881;49.962;7.718;2023-02-19T01:42:28;3.23;;;2.93;;
3781;SDS011;6881;49.962;7.718;2023-02-19T01:45:18;3.20;;;1.87;;
3781;SDS011;6881;49.962;7.718;2023-02-19T01:47:39;2.37;;;2.00;;
3781;SDS011;6881;49.962;7.718;2023-02-19T01:50:05;4.20;;;3.10;;
3781;SDS011;6881;49.962;7.718;2023-02-19T01:52:31;3.57;;;3.00;;
3781;SDS011;6881;49.962;7.718;2023-02-19T01:54:59;3.70;;;2.30;;
3781;SDS011;6881;49.962;7.718;2023-02-19T01:57:27;3.73;;;3.10;;
3781;SDS011;6881;49.962;7.718;2023-02-19T02:00:02;2.57;;;2.33;;
3781;SDS011;6881;49.962;7.718;2023-02-19T02:02:29;3.70;;;2.83;;
3781;SDS011;6881;49.962;7.718;2023-02-19T02:04:55;4.87;;;2.93;;
3781;SDS011;6881;49.962;7.718;2023-02-19T02:07:22;3.93;;;3.47;;
3781;SDS011;6881;49.962;7.718;2023-02-19T02:10:06;3.50;;;2.70;;
3781;SDS011;6881;49.962;7.718;2023-02-19T02:12:47;3.10;;;2.80;;
3781;SDS011;6881;49.962;7.718;2023-02-19T02:15:14;5.93;;;2.67;;
3781;SDS011;6881;49.962;7.718;2023-02-19T02:17:56;3.77;;;3.00;;
3781;SDS011;6881;49.962;7.718;2023-02-19T02:30:53;4.00;;;3.60;;
3781;SDS011;6881;49.962;7.718;2023-02-19T02:33:23;4.30;;;2.90;;
3781;SDS011;6881;49.962;7.718;2023-02-19T02:36:08;3.40;;;2.90;;
3781;SDS011;6881;49.962;7.718;2023-02-19T02:38:36;2.50;;;2.13;;
3781;SDS011;6881;49.962;7.718;2023-02-19T02:41:04;4.50;;;2.67;;
3781;SDS011;6881;49.962;7.718;2023-02-19T02:43:30;2.63;;;2.10;;
3781;SDS011;6881;49.962;7.718;2023-02-19T02:45:56;3.10;;;2.43;;
3781;SDS011;6881;49.962;7.718;2023-02-19T02:48:23;5.40;;;3.53;;
3781;SDS011;6881;49.962;7.718;2023-02-19T02:50:52;4.70;;;3.03;;
3781;SDS011;6881;49.962;7.718;2023-02-19T02:56:24;3.47;;;2.93;;
3781;SDS011;6881;49.962;7.718;2023-02-19T02:58:50;2.87;;;2.40;;
3781;SDS011;6881;49.962;7.718;2023-02-19T03:01:22;3.50;;;2.27;;
3781;SDS011;6881;49.962;7.718;2023-02-19T03:04:13;3.20;;;2.50;;
3781;SDS011;6881;49.962;7.718;2023-02-19T03:07:00;2.47;;;2.03;;
3781;SDS011;6881;49.962;7.718;2023-02-19T03:09:34;2.80;;;2.03;;
3781;SDS011;6881;49.962;7.718;2023-02-19T03:12:05;4.53;;;3.30;;
3781;SDS011;6881;49.962;7.718;2023-02-19T03:14:51;2.40;;;2.17;;
3781;SDS011;6881;49.962;7.718;2023-02-19T03:17:41;3.97;;;2.80;;
3781;SDS011;6881;49.962;7.718;2023-02-19T03:20:35;3.60;;;2.60;;
3781;SDS011;6881;49.962;7.718;2023-02-19T03:23:04;4.33;;;3.00;;
3781;SDS011;6881;49.962;7.718;2023-02-19T03:25:31;4.43;;;3.40;;
3781;SDS011;6881;49.962;7.718;2023-02-19T03:28:16;3.53;;;3.23;;
3781;SDS011;6881;49.962;7.718;2023-02-19T03:30:46;3.87;;;3.47;;
3781;SDS011;6881;49.962;7.718;2023-02-19T03:33:16;3.97;;;3.30;;
3781;SDS011;6881;49.962;7.718;2023-02-19T03:35:47;2.57;;;2.23;;
3781;SDS011;6881;49.962;7.718;2023-02-19T03:38:58;4.57;;;2.67;;
3781;SDS011;6881;49.962;7.718;2023-02-19T03:43:49;2.83;;;2.63;;
3781;SDS011;6881;49.962;7.718;2023-02-19T03:46:25;3.47;;;2.10;;
3781;SDS011;6881;49.962;7.718;2023-02-19T03:57:53;4.43;;;2.63;;
3781;SDS011;6881;49.962;7.718;2023-02-19T04:00:21;2.90;;;2.50;;
3781;SDS011;6881;49.962;7.718;2023-02-19T04:02:52;3.13;;;2.47;;
3781;SDS011;6881;49.962;7.718;2023-02-19T04:05:20;2.97;;;2.67;;
3781;SDS011;6881;49.962;7.718;2023-02-19T04:07:48;2.57;;;2.37;;
3781;SDS011;6881;49.962;7.718;2023-02-19T04:10:15;3.10;;;2.80;;
3781;SDS011;6881;49.962;7.718;2023-02-19T04:12:42;3.17;;;2.90;;
3781;SDS011;6881;49.962;7.718;2023-02-19T04:15:12;4.57;;;3.37;;
3781;SDS011;6881;49.962;7.718;2023-02-19T04:17:48;3.57;;;3.10;;
3781;SDS011;6881;49.962;7.718;2023-02-19T04:20:17;9.77;;;3.03;;
3781;SDS011;6881;49.962;7.718;2023-02-19T04:22:43;4.07;;;3.10;;
3781;SDS011;6881;49.962;7.718;2023-02-19T04:25:09;4.30;;;2.70;;
3781;SDS011;6881;49.962;7.718;2023-02-19T04:27:38;3.60;;;3.00;;
3781;SDS011;6881;49.962;7.718;2023-02-19T04:30:04;3.37;;;2.60;;
3781;SDS011;6881;49.962;7.718;2023-02-19T04:32:30;3.90;;;3.10;;
3781;SDS011;6881;49.962;7.718;2023-02-19T04:34:55;3.07;;;2.30;;
3781;SDS011;6881;49.962;7.718;2023-02-19T04:37:21;3.00;;;2.00;;
3781;SDS011;6881;49.962;7.718;2023-02-19T04:39:46;1.70;;;1.60;;
3781;SDS011;6881;49.962;7.718;2023-02-19T04:42:11;2.03;;;1.80;;
3781;SDS011;6881;49.962;7.718;2023-02-19T04:44:37;2.63;;;2.40;;
3781;SDS011;6881;49.962;7.718;2023-02-19T04:47:02;3.00;;;2.23;;
3781;SDS011;6881;49.962;7.718;2023-02-19T04:49:27;2.53;;;2.20;;
3781;SDS011;6881;49.962;7.718;2023-02-19T04:51:53;3.93;;;2.20;;
3781;SDS011;6881;49.962;7.718;2023-02-19T04:54:18;4.07;;;2.07;;
3781;SDS011;6881;49.962;7.718;2023-02-19T04:56:43;2.70;;;2.17;;
3781;SDS011;6881;49.962;7.718;2023-02-19T04:59:09;4.43;;;2.30;;
3781;SDS011;6881;49.962;7.718;2023-02-19T05:01:34;2.43;;;2.10;;
3781;SDS011;6881;49.962;7.718;2023-02-19T05:03:59;2.70;;;2.07;;
3781;SDS011;6881;49.962;7.718;2023-02-19T05:06:25;4.03;;;2.00;;
3781;SDS011;6881;49.962;7.718;2023-02-19T05:08:51;3.00;;;2.23;;
3781;SDS011;6881;49.962;7.718;2023-02-19T05:11:16;2.63;;;2.23;;
3781;SDS011;6881;49.962;7.718;2023-02-19T05:13:42;4.90;;;3.70;;
3781;SDS011;6881;49.962;7.718;2023-02-19T05:16:11;6.03;;;3.70;;
3781;SDS011;6881;49.962;7.718;2023-02-19T05:18:40;5.23;;;2.23;;
3781;SDS011;6881;49.962;7.718;2023-02-19T05:21:06;5.83;;;3.80;;
3781;SDS011;6881;49.962;7.718;2023-02-19T05:23:31;4.30;;;3.20;;
3781;SDS011;6881;49.962;7.718;2023-02-19T05:25:57;3.70;;;2.60;;
3781;SDS011;6881;49.962;7.718;2023-02-19T05:28:22;5.90;;;4.03;;
3781;SDS011;6881;49.962;7.718;2023-02-19T05:30:52;2.63;;;2.40;;
3781;SDS011;6881;49.962;7.718;2023-02-19T05:33:18;3.50;;;2.40;;
3781;SDS011;6881;49.962;7.718;2023-02-19T05:35:48;3.93;;;2.80;;
3781;SDS011;6881;49.962;7.718;2023-02-19T05:38:15;3.50;;;2.30;;
3781;SDS011;6881;49.962;7.718;2023-02-19T05:40:41;4.57;;;2.23;;
3781;SDS011;6881;49.962;7.718;2023-02-19T05:43:07;2.50;;;2.30;;
3781;SDS011;6881;49.962;7.718;2023-02-19T05:45:33;4.47;;;2.13;;
3781;SDS011;6881;49.962;7.718;2023-02-19T05:47:58;3.20;;;2.17;;
3781;SDS011;6881;49.962;7.718;2023-02-19T05:50:24;3.73;;;2.33;;
3781;SDS011;6881;49.962;7.718;2023-02-19T05:52:49;2.83;;;2.33;;
3781;SDS011;6881;49.962;7.718;2023-02-19T05:55:15;1.93;;;1.70;;
3781;SDS011;6881;49.962;7.718;2023-02-19T05:57:41;3.03;;;2.50;;
3781;SDS011;6881;49.962;7.718;2023-02-19T06:00:11;6.30;;;2.83;;
3781;SDS011;6881;49.962;7.718;2023-02-19T06:02:37;2.53;;;1.30;;
3781;SDS011;6881;49.962;7.718;2023-02-19T06:05:03;3.43;;;2.07;;
3781;SDS011;6881;49.962;7.718;2023-02-19T06:07:29;3.47;;;1.87;;
3781;SDS011;6881;49.962;7.718;2023-02-19T06:09:55;2.40;;;1.80;;
3781;SDS011;6881;49.962;7.718;2023-02-19T06:12:21;2.73;;;1.93;;
3781;SDS011;6881;49.962;7.718;2023-02-19T06:14:46;1.73;;;1.57;;
3781;SDS011;6881;49.962;7.718;2023-02-19T06:17:11;2.63;;;1.83;;
3781;SDS011;6881;49.962;7.718;2023-02-19T06:19:37;3.43;;;2.23;;
3781;SDS011;6881;49.962;7.718;2023-02-19T06:22:02;4.13;;;2.40;;
3781;SDS011;6881;49.962;7.718;2023-02-19T06:24:27;2.40;;;2.13;;
3781;SDS011;6881;49.962;7.718;2023-02-19T06:26:53;6.70;;;2.97;;
3781;SDS011;6881;49.962;7.718;2023-02-19T06:29:18;3.50;;;3.00;;
3781;SDS011;6881;49.962;7.718;2023-02-19T06:31:43;3.23;;;2.17;;
3781;SDS011;6881;49.962;7.718;2023-02-19T06:34:09;4.53;;;2.80;;
3781;SDS011;6881;49.962;7.718;2023-02-19T06:36:34;6.33;;;3.30;;
3781;SDS011;6881;49.962;7.718;2023-02-19T06:39:00;4.57;;;2.77;;
3781;SDS011;6881;49.962;7.718;2023-02-19T06:41:26;3.50;;;2.20;;
3781;SDS011;6881;49.962;7.718;2023-02-19T06:43:51;2.50;;;2.13;;
3781;SDS011;6881;49.962;7.718;2023-02-19T06:46:16;4.83;;;2.30;;
3781;SDS011;6881;49.962;7.718;2023-02-19T06:48:43;5.67;;;2.40;;
3781;SDS011;6881;49.962;7.718;2023-02-19T06:51:12;2.20;;;2.00;;
3781;SDS011;6881;49.962;7.718;2023-02-19T06:53:39;3.50;;;2.00;;
3781;SDS011;6881;49.962;7.718;2023-02-19T06:56:05;3.23;;;2.23;;
3781;SDS011;6881;49.962;7.718;2023-02-19T06:58:32;2.70;;;1.93;;
3781;SDS011;6881;49.962;7.718;2023-02-19T07:00:58;3.90;;;1.77;;
3781;SDS011;6881;49.962;7.718;2023-02-19T07:03:23;2.70;;;2.20;;
3781;SDS011;6881;49.962;7.718;2023-02-19T07:05:50;2.43;;;1.80;;
3781;SDS011;6881;49.962;7.718;2023-02-19T07:08:16;5.47;;;2.60;;
3781;SDS011;6881;49.962;7.718;2023-02-19T07:10:42;4.30;;;2.33;;
3781;SDS011;6881;49.962;7.718;2023-02-19T07:13:08;4.47;;;2.40;;
3781;SDS011;6881;49.962;7.718;2023-02-19T07:15:33;7.73;;;2.60;;
3781;SDS011;6881;49.962;7.718;2023-02-19T07:17:59;4.33;;;2.67;;
3781;SDS011;6881;49.962;7.718;2023-02-19T07:20:24;4.37;;;2.40;;
3781;SDS011;6881;49.962;7.718;2023-02-19T07:22:49;6.23;;;3.10;;
3781;SDS011;6881;49.962;7.718;2023-02-19T07:25:15;2.83;;;2.33;;
3781;SDS011;6881;49.962;7.718;2023-02-19T07:27:40;4.70;;;2.97;;
3781;SDS011;6881;49.962;7.718;2023-02-19T07:30:06;10.83;;;2.90;;
3781;SDS011;6881;49.962;7.718;2023-02-19T07:32:31;4.63;;;2.83;;
3781;SDS011;6881;49.962;7.718;2023-02-19T07:34:56;12.83;;;3.60;;
3781;SDS011;6881;49.962;7.718;2023-02-19T07:37:22;6.27;;;2.87;;
3781;SDS011;6881;49.962;7.718;2023-02-19T07:39:48;4.00;;;2.80;;
3781;SDS011;6881;49.962;7.718;2023-02-19T07:42:14;8.10;;;5.40;;
3781;SDS011;6881;49.962;7.718;2023-02-19T07:44:39;10.60;;;5.77;;
3781;SDS011;6881;49.962;7.718;2023-02-19T07:47:04;17.20;;;8.63;;
3781;SDS011;6881;49.962;7.718;2023-02-19T07:49:30;10.13;;;7.90;;
3781;SDS011;6881;49.962;7.718;2023-02-19T07:51:55;13.23;;;5.63;;
3781;SDS011;6881;49.962;7.718;2023-02-19T07:54:20;5.20;;;3.73;;
3781;SDS011;6881;49.962;7.718;2023-02-19T07:56:46;8.73;;;4.53;;
3781;SDS011;6881;49.962;7.718;2023-02-19T07:59:11;7.50;;;3.90;;
3781;SDS011;6881;49.962;7.718;2023-02-19T08:01:36;6.67;;;4.43;;
3781;SDS011;6881;49.962;7.718;2023-02-19T08:04:20;12.80;;;7.60;;
3781;SDS011;6881;49.962;7.718;2023-02-19T08:06:45;8.47;;;5.00;;
3781;SDS011;6881;49.962;7.718;2023-02-19T08:09:11;6.93;;;4.13;;
3781;SDS011;6881;49.962;7.718;2023-02-19T08:11:36;3.90;;;3.50;;
3781;SDS011;6881;49.962;7.718;2023-02-19T08:14:24;5.13;;;3.83;;
3781;SDS011;6881;49.962;7.718;2023-02-19T08:16:50;4.70;;;4.07;;
3781;SDS011;6881;49.962;7.718;2023-02-19T08:19:16;7.03;;;3.20;;
3781;SDS011;6881;49.962;7.718;2023-02-19T08:21:41;7.37;;;3.87;;
3781;SDS011;6881;49.962;7.718;2023-02-19T08:24:07;4.70;;;3.97;;
3781;SDS011;6881;49.962;7.718;2023-02-19T08:26:32;7.47;;;3.23;;
3781;SDS011;6881;49.962;7.718;2023-02-19T08:28:58;5.03;;;2.40;;
3781;SDS011;6881;49.962;7.718;2023-02-19T08:31:23;6.40;;;3.00;;
3781;SDS011;6881;49.962;7.718;2023-02-19T08:33:49;5.27;;;2.40;;
3781;SDS011;6881;49.962;7.718;2023-02-19T08:36:14;4.40;;;2.90;;
3781;SDS011;6881;49.962;7.718;2023-02-19T08:38:40;7.30;;;2.60;;
3781;SDS011;6881;49.962;7.718;2023-02-19T08:41:06;7.23;;;3.47;;
3781;SDS011;6881;49.962;7.718;2023-02-19T08:43:32;4.53;;;3.30;;
3781;SDS011;6881;49.962;7.718;2023-02-19T08:45:58;7.23;;;2.70;;
3781;SDS011;6881;49.962;7.718;2023-02-19T08:48:23;7.77;;;3.70;;
3781;SDS011;6881;49.962;7.718;2023-02-19T08:50:52;5.70;;;3.77;;
3781;SDS011;6881;49.962;7.718;2023-02-19T08:53:18;4.90;;;3.10;;
3781;SDS011;6881;49.962;7.718;2023-02-19T08:55:44;5.83;;;3.57;;
3781;SDS011;6881;49.962;7.718;2023-02-19T08:58:09;8.20;;;3.53;;
3781;SDS011;6881;49.962;7.718;2023-02-19T09:00:35;5.10;;;2.73;;
3781;SDS011;6881;49.962;7.718;2023-02-19T09:03:00;6.10;;;3.37;;
3781;SDS011;6881;49.962;7.718;2023-02-19T09:05:25;4.83;;;2.83;;
3781;SDS011;6881;49.962;7.718;2023-02-19T09:07:51;9.07;;;3.23;;
3781;SDS011;6881;49.962;7.718;2023-02-19T09:10:16;5.40;;;3.40;;
3781;SDS011;6881;49.962;7.718;2023-02-19T09:12:42;8.13;;;3.50;;
3781;SDS011;6881;49.962;7.718;2023-02-19T09:15:07;9.90;;;3.70;;
3781;SDS011;6881;49.962;7.718;2023-02-19T09:17:33;7.93;;;3.37;;
3781;SDS011;6881;49.962;7.718;2023-02-19T09:19:59;6.27;;;4.13;;
3781;SDS011;6881;49.962;7.718;2023-02-19T09:22:24;6.33;;;4.17;;
3781;SDS011;6881;49.962;7.718;2023-02-19T09:24:49;4.90;;;2.87;;
3781;SDS011;6881;49.962;7.718;2023-02-19T09:27:15;12.43;;;5.10;;
3781;SDS011;6881;49.962;7.718;2023-02-19T09:29:42;8.33;;;4.73;;
3781;SDS011;6881;49.962;7.718;2023-02-19T09:32:07;14.47;;;6.77;;
3781;SDS011;6881;49.962;7.718;2023-02-19T09:34:32;12.13;;;6.53;;
3781;SDS011;6881;49.962;7.718;2023-02-19T09:36:58;13.93;;;8.43;;
3781;SDS011;6881;49.962;7.718;2023-02-19T09:39:23;15.93;;;8.20;;
3781;SDS011;6881;49.962;7.718;2023-02-19T09:41:50;11.83;;;7.07;;
3781;SDS011;6881;49.962;7.718;2023-02-19T09:44:26;9.70;;;5.40;;
3781;SDS011;6881;49.962;7.718;2023-02-19T09:46:54;10.30;;;5.07;;
3781;SDS011;6881;49.962;7.718;2023-02-19T09:49:25;7.80;;;5.27;;
3781;SDS011;6881;49.962;7.718;2023-02-19T09:51:57;13.63;;;6.67;;
3781;SDS011;6881;49.962;7.718;2023-02-19T09:54:26;12.57;;;6.83;;
3781;SDS011;6881;49.962;7.718;2023-02-19T09:56:54;10.63;;;6.23;;
3781;SDS011;6881;49.962;7.718;2023-02-19T09:59:24;13.13;;;5.70;;
3781;SDS011;6881;49.962;7.718;2023-02-19T10:01:54;8.53;;;3.20;;
3781;SDS011;6881;49.962;7.718;2023-02-19T10:04:23;22.13;;;7.77;;
3781;SDS011;6881;49.962;7.718;2023-02-19T10:06:49;12.53;;;6.67;;
3781;SDS011;6881;49.962;7.718;2023-02-19T10:09:24;9.37;;;5.40;;
3781;SDS011;6881;49.962;7.718;2023-02-19T10:11:52;10.37;;;5.43;;
3781;SDS011;6881;49.962;7.718;2023-02-19T10:14:26;8.80;;;4.37;;
3781;SDS011;6881;49.962;7.718;2023-02-19T10:16:56;7.13;;;3.40;;
3781;SDS011;6881;49.962;7.718;2023-02-19T10:19:23;7.83;;;3.90;;
3781;SDS011;6881;49.962;7.718;2023-02-19T10:21:48;6.40;;;3.57;;
3781;SDS011;6881;49.962;7.718;2023-02-19T10:24:20;5.00;;;2.80;;
3781;SDS011;6881;49.962;7.718;2023-02-19T10:26:50;4.20;;;2.90;;
3781;SDS011;6881;49.962;7.718;2023-02-19T10:29:15;6.30;;;2.57;;
3781;SDS011;6881;49.962;7.718;2023-02-19T10:31:41;7.30;;;3.30;;
3781;SDS011;6881;49.962;7.718;2023-02-19T10:34:06;6.63;;;4.40;;
3781;SDS011;6881;49.962;7.718;2023-02-19T10:36:42;17.40;;;10.23;;
3781;SDS011;6881;49.962;7.718;2023-02-19T10:39:25;12.23;;;5.20;;
3781;SDS011;6881;49.962;7.718;2023-02-19T10:41:53;8.10;;;3.60;;
3781;SDS011;6881;49.962;7.718;2023-02-19T10:44:29;5.20;;;3.00;;
3781;SDS011;6881;49.962;7.718;2023-02-19T10:46:59;4.50;;;2.30;;
3781;SDS011;6881;49.962;7.718;2023-02-19T10:51:54;4.70;;;3.93;;
3781;SDS011;6881;49.962;7.718;2023-02-19T10:54:25;7.17;;;4.17;;
3781;SDS011;6881;49.962;7.718;2023-02-19T10:56:53;5.90;;;3.40;;
3781;SDS011;6881;49.962;7.718;2023-02-19T10:59:37;7.27;;;3.80;;
3781;SDS011;6881;49.962;7.718;2023-02-19T11:02:07;10.60;;;4.33;;
3781;SDS011;6881;49.962;7.718;2023-02-19T11:04:40;7.87;;;4.90;;
3781;SDS011;6881;49.962;7.718;2023-02-19T11:07:07;11.57;;;4.17;;
3781;SDS011;6881;49.962;7.718;2023-02-19T11:09:36;5.93;;;3.73;;
3781;SDS011;6881;49.962;7.718;2023-02-19T11:12:03;5.37;;;4.10;;
3781;SDS011;6881;49.962;7.718;2023-02-19T11:14:29;3.57;;;2.67;;
3781;SDS011;6881;49.962;7.718;2023-02-19T11:16:56;6.40;;;3.73;;
3781;SDS011;6881;49.962;7.718;2023-02-19T11:21:47;4.00;;;2.73;;
3781;SDS011;6881;49.962;7.718;2023-02-19T11:24:24;2.50;;;2.30;;
3781;SDS011;6881;49.962;7.718;2023-02-19T11:26:53;8.63;;;3.13;;
3781;SDS011;6881;49.962;7.718;2023-02-19T11:29:20;3.40;;;2.50;;
3781;SDS011;6881;49.962;7.718;2023-02-19T11:31:47;3.80;;;2.50;;
3781;SDS011;6881;49.962;7.718;2023-02-19T11:36:38;4.90;;;3.43;;
3781;SDS011;6881;49.962;7.718;2023-02-19T11:39:17;4.50;;;2.50;;
3781;SDS011;6881;49.962;7.718;2023-02-19T11:55:13;5.10;;;2.70;;
3781;SDS011;6881;49.962;7.718;2023-02-19T11:57:44;9.90;;;4.80;;
3781;SDS011;6881;49.962;7.718;2023-02-19T12:00:25;11.70;;;5.40;;
3781;SDS011;6881;49.962;7.718;2023-02-19T12:16:17;2.90;;;2.63;;
3781;SDS011;6881;49.962;7.718;2023-02-19T12:27:14;5.23;;;2.90;;
3781;SDS011;6881;49.962;7.718;2023-02-19T12:32:48;6.30;;;2.80;;
3781;SDS011;6881;49.962;7.718;2023-02-19T12:43:52;2.60;;;2.13;;
3781;SDS011;6881;49.962;7.718;2023-02-19T12:46:25;3.97;;;2.30;;
3781;SDS011;6881;49.962;7.718;2023-02-19T12:49:09;2.47;;;1.90;;
3781;SDS011;6881;49.962;7.718;2023-02-19T12:51:42;5.47;;;2.60;;
3781;SDS011;6881;49.962;7.718;2023-02-19T12:54:18;7.73;;;2.47;;
3781;SDS011;6881;49.962;7.718;2023-02-19T12:56:49;5.57;;;3.37;;
3781;SDS011;6881;49.962;7.718;2023-02-19T12:59:23;5.37;;;3.03;;
3781;SDS011;6881;49.962;7.718;2023-02-19T13:04:56;4.80;;;2.60;;
3781;SDS011;6881;49.962;7.718;2023-02-19T13:07:27;9.00;;;2.27;;
3781;SDS011;6881;49.962;7.718;2023-02-19T13:09:57;5.10;;;3.20;;
3781;SDS011;6881;49.962;7.718;2023-02-19T13:12:28;5.70;;;2.60;;
3781;SDS011;6881;49.962;7.718;2023-02-19T13:14:59;3.77;;;3.40;;
3781;SDS011;6881;49.962;7.718;2023-02-19T13:22:45;7.03;;;2.97;;
3781;SDS011;6881;49.962;7.718;2023-02-19T13:36:30;9.33;;;3.40;;
3781;SDS011;6881;49.962;7.718;2023-02-19T13:38:56;8.20;;;3.87;;
3781;SDS011;6881;49.962;7.718;2023-02-19T13:44:03;5.90;;;4.00;;
3781;SDS011;6881;49.962;7.718;2023-02-19T13:46:36;7.77;;;5.27;;
3781;SDS011;6881;49.962;7.718;2023-02-19T13:51:51;10.13;;;4.17;;
3781;SDS011;6881;49.962;7.718;2023-02-19T13:59:48;14.73;;;6.83;;
3781;SDS011;6881;49.962;7.718;2023-02-19T14:09:43;10.60;;;4.80;;
3781;SDS011;6881;49.962;7.718;2023-02-19T14:27:59;9.73;;;4.80;;
3781;SDS011;6881;49.962;7.718;2023-02-19T14:30:31;8.20;;;3.00;;
3781;SDS011;6881;49.962;7.718;2023-02-19T14:32:58;10.00;;;4.70;;
3781;SDS011;6881;49.962;7.718;2023-02-19T14:35:34;12.17;;;4.10;;
3781;SDS011;6881;49.962;7.718;2023-02-19T14:38:03;7.33;;;2.97;;
3781;SDS011;6881;49.962;7.718;2023-02-19T14:40:34;7.53;;;3.60;;
3781;SDS011;6881;49.962;7.718;2023-02-19T14:43:10;7.57;;;3.20;;
3781;SDS011;6881;49.962;7.718;2023-02-19T14:45:39;10.87;;;3.80;;
3781;SDS011;6881;49.962;7.718;2023-02-19T14:48:08;6.37;;;3.07;;
3781;SDS011;6881;49.962;7.718;2023-02-19T14:50:42;3.90;;;2.83;;
3781;SDS011;6881;49.962;7.718;2023-02-19T14:53:07;5.93;;;2.63;;
3781;SDS011;6881;49.962;7.718;2023-02-19T14:55:36;5.00;;;3.20;;
3781;SDS011;6881;49.962;7.718;2023-02-19T14:58:05;5.67;;;3.23;;
3781;SDS011;6881;49.962;7.718;2023-02-19T15:00:36;5.57;;;3.27;;
3781;SDS011;6881;49.962;7.718;2023-02-19T15:03:02;3.57;;;2.90;;
3781;SDS011;6881;49.962;7.718;2023-02-19T15:05:30;4.00;;;2.70;;
3781;SDS011;6881;49.962;7.718;2023-02-19T15:07:57;5.47;;;2.97;;
3781;SDS011;6881;49.962;7.718;2023-02-19T15:10:25;4.03;;;2.10;;
3781;SDS011;6881;49.962;7.718;2023-02-19T15:12:56;4.97;;;3.47;;
3781;SDS011;6881;49.962;7.718;2023-02-19T15:15:29;9.27;;;3.90;;
3781;SDS011;6881;49.962;7.718;2023-02-19T15:17:57;4.23;;;2.90;;
3781;SDS011;6881;49.962;7.718;2023-02-19T15:20:24;4.80;;;3.27;;
3781;SDS011;6881;49.962;7.718;2023-02-19T15:22:51;6.67;;;4.90;;
3781;SDS011;6881;49.962;7.718;2023-02-19T15:25:18;6.60;;;3.80;;
3781;SDS011;6881;49.962;7.718;2023-02-19T15:27:44;3.63;;;2.47;;
3781;SDS011;6881;49.962;7.718;2023-02-19T15:30:20;4.87;;;2.83;;
3781;SDS011;6881;49.962;7.718;2023-02-19T15:32:52;5.50;;;2.93;;
3781;SDS011;6881;49.962;7.718;2023-02-19T15:35:27;6.30;;;2.80;;
3781;SDS011;6881;49.962;7.718;2023-02-19T15:37:53;3.80;;;3.40;;
3781;SDS011;6881;49.962;7.718;2023-02-19T15:40:23;6.50;;;3.87;;
3781;SDS011;6881;49.962;7.718;2023-02-19T15:42:51;7.90;;;4.23;;
3781;SDS011;6881;49.962;7.718;2023-02-19T15:45:24;5.20;;;3.87;;
3781;SDS011;6881;49.962;7.718;2023-02-19T15:47:58;5.70;;;4.00;;
3781;SDS011;6881;49.962;7.718;2023-02-19T15:53:00;9.17;;;7.40;;
3781;SDS011;6881;49.962;7.718;2023-02-19T16:03:19;9.60;;;4.60;;
3781;SDS011;6881;49.962;7.718;2023-02-19T16:05:46;6.40;;;4.60;;
3781;SDS011;6881;49.962;7.718;2023-02-19T16:08:26;7.47;;;4.60;;
3781;SDS011;6881;49.962;7.718;2023-02-19T16:10:54;4.90;;;4.40;;
3781;SDS011;6881;49.962;7.718;2023-02-19T16:13:22;5.03;;;3.93;;
3781;SDS011;6881;49.962;7.718;2023-02-19T16:15:58;5.17;;;3.60;;
3781;SDS011;6881;49.962;7.718;2023-02-19T16:18:37;7.03;;;3.30;;
3781;SDS011;6881;49.962;7.718;2023-02-19T16:21:11;4.87;;;3.47;;
3781;SDS011;6881;49.962;7.718;2023-02-19T16:23:43;4.33;;;3.93;;
3781;SDS011;6881;49.962;7.718;2023-02-19T16:26:08;8.40;;;4.30;;
3781;SDS011;6881;49.962;7.718;2023-02-19T16:28:37;6.60;;;4.10;;
3781;SDS011;6881;49.962;7.718;2023-02-19T16:31:05;7.60;;;3.87;;
3781;SDS011;6881;49.962;7.718;2023-02-19T16:33:33;4.90;;;4.10;;
3781;SDS011;6881;49.962;7.718;2023-02-19T16:44:28;4.90;;;3.20;;
3781;SDS011;6881;49.962;7.718;2023-02-19T16:47:02;3.50;;;3.20;;
3781;SDS011;6881;49.962;7.718;2023-02-19T16:49:28;4.40;;;3.93;;
3781;SDS011;6881;49.962;7.718;2023-02-19T16:51:54;4.93;;;3.40;;
3781;SDS011;6881;49.962;7.718;2023-02-19T16:54:21;5.80;;;3.13;;
3781;SDS011;6881;49.962;7.718;2023-02-19T16:56:46;4.37;;;2.97;;
3781;SDS011;6881;49.962;7.718;2023-02-19T16:59:11;5.60;;;3.90;;
3781;SDS011;6881;49.962;7.718;2023-02-19T17:01:37;8.20;;;5.33;;
3781;SDS011;6881;49.962;7.718;2023-02-19T17:04:06;7.80;;;5.00;;
3781;SDS011;6881;49.962;7.718;2023-02-19T17:06:33;9.33;;;6.70;;
3781;SDS011;6881;49.962;7.718;2023-02-19T17:08:59;7.90;;;4.97;;
3781;SDS011;6881;49.962;7.718;2023-02-19T17:11:25;6.10;;;4.10;;
3781;SDS011;6881;49.962;7.718;2023-02-19T17:13:50;5.73;;;3.63;;
3781;SDS011;6881;49.962;7.718;2023-02-19T17:16:16;4.57;;;3.70;;
3781;SDS011;6881;49.962;7.718;2023-02-19T17:18:42;4.40;;;3.40;;
3781;SDS011;6881;49.962;7.718;2023-02-19T17:23:44;5.97;;;3.87;;
3781;SDS011;6881;49.962;7.718;2023-02-19T17:26:12;3.70;;;3.40;;
3781;SDS011;6881;49.962;7.718;2023-02-19T17:28:41;6.53;;;5.07;;
3781;SDS011;6881;49.962;7.718;2023-02-19T17:31:10;9.30;;;5.67;;
3781;SDS011;6881;49.962;7.718;2023-02-19T17:33:36;12.17;;;7.50;;
3781;SDS011;6881;49.962;7.718;2023-02-19T17:36:02;6.47;;;5.80;;
3781;SDS011;6881;49.962;7.718;2023-02-19T17:38:27;6.73;;;4.70;;
3781;SDS011;6881;49.962;7.718;2023-02-19T17:40:53;5.50;;;4.90;;
3781;SDS011;6881;49.962;7.718;2023-02-19T17:43:18;8.00;;;4.00;;
3781;SDS011;6881;49.962;7.718;2023-02-19T17:45:43;4.97;;;3.60;;
3781;SDS011;6881;49.962;7.718;2023-02-19T17:48:12;4.60;;;4.03;;
3781;SDS011;6881;49.962;7.718;2023-02-19T17:50:37;5.40;;;4.13;;
3781;SDS011;6881;49.962;7.718;2023-02-19T17:53:03;5.40;;;4.20;;
3781;SDS011;6881;49.962;7.718;2023-02-19T17:55:29;6.80;;;4.77;;
3781;SDS011;6881;49.962;7.718;2023-02-19T17:57:54;6.87;;;4.80;;